sensor_id;sensor_type;location;lat;lon;timestamp;P1;durP1;ratioP1;P2;durP2;ratioP2
56736;SDS011;42618;51.226;4.910;2023-05-10T00:01:35;30.50;;;16.90;;
56736;SDS011;42618;51.226;4.910;2023-05-10T00:04:02;28.00;;;15.32;;
56736;SDS011;42618;51.226;4.910;2023-05-10T00:06:29;33.97;;;16.47;;
56736;SDS011;42618;51.226;4.910;2023-05-10T00:08:56;30.13;;;14.77;;
56736;SDS011;42618;51.226;4.910;2023-05-10T00:11:23;36.25;;;16.65;;
56736;SDS011;42618;51.226;4.910;2023-05-10T00:13:50;25.35;;;14.25;;
56736;SDS011;42618;51.226;4.910;2023-05-10T00:16:17;27.85;;;14.13;;
56736;SDS011;42618;51.226;4.910;2023-05-10T00:18:44;30.08;;;15.57;;
56736;SDS011;42618;51.226;4.910;2023-05-10T00:21:10;25.25;;;13.73;;
56736;SDS011;42618;51.226;4.910;2023-05-10T00:23:38;22.98;;;12.40;;
56736;SDS011;42618;51.226;4.910;2023-05-10T00:26:05;29.65;;;14.55;;
56736;SDS011;42618;51.226;4.910;2023-05-10T00:28:31;27.00;;;14.98;;
56736;SDS011;42618;51.226;4.910;2023-05-10T00:30:58;30.05;;;15.20;;
56736;SDS011;42618;51.226;4.910;2023-05-10T00:33:25;27.55;;;14.18;;
56736;SDS011;42618;51.226;4.910;2023-05-10T00:35:51;29.25;;;14.80;;
56736;SDS011;42618;51.226;4.910;2023-05-10T00:38:18;27.80;;;14.02;;
56736;SDS011;42618;51.226;4.910;2023-05-10T00:40:45;27.40;;;13.65;;
56736;SDS011;42618;51.226;4.910;2023-05-10T00:43:20;25.63;;;13.98;;
56736;SDS011;42618;51.226;4.910;2023-05-10T00:45:47;22.92;;;12.80;;
56736;SDS011;42618;51.226;4.910;2023-05-10T00:48:13;28.38;;;14.05;;
56736;SDS011;42618;51.226;4.910;2023-05-10T00:50:40;28.38;;;14.20;;
56736;SDS011;42618;51.226;4.910;2023-05-10T00:53:08;31.00;;;14.02;;
56736;SDS011;42618;51.226;4.910;2023-05-10T00:55:35;30.17;;;14.80;;
56736;SDS011;42618;51.226;4.910;2023-05-10T00:58:02;29.17;;;13.50;;
56736;SDS011;42618;51.226;4.910;2023-05-10T01:00:29;28.07;;;13.60;;
56736;SDS011;42618;51.226;4.910;2023-05-10T01:02:56;27.23;;;13.10;;
56736;SDS011;42618;51.226;4.910;2023-05-10T01:05:23;27.67;;;12.73;;
56736;SDS011;42618;51.226;4.910;2023-05-10T01:07:51;29.92;;;13.23;;
56736;SDS011;42618;51.226;4.910;2023-05-10T01:10:17;26.92;;;13.15;;
56736;SDS011;42618;51.226;4.910;2023-05-10T01:12:45;23.37;;;9.47;;
56736;SDS011;42618;51.226;4.910;2023-05-10T01:15:13;30.75;;;12.07;;
56736;SDS011;42618;51.226;4.910;2023-05-10T01:17:44;31.30;;;13.88;;
56736;SDS011;42618;51.226;4.910;2023-05-10T01:20:14;32.45;;;14.32;;
56736;SDS011;42618;51.226;4.910;2023-05-10T01:34:16;30.30;;;12.43;;
56736;SDS011;42618;51.226;4.910;2023-05-10T01:37:02;35.60;;;13.88;;
56736;SDS011;42618;51.226;4.910;2023-05-10T01:39:55;32.13;;;13.55;;
56736;SDS011;42618;51.226;4.910;2023-05-10T01:42:51;36.55;;;13.27;;
56736;SDS011;42618;51.226;4.910;2023-05-10T01:45:27;35.08;;;14.13;;
56736;SDS011;42618;51.226;4.910;2023-05-10T01:50:38;34.13;;;13.52;;
56736;SDS011;42618;51.226;4.910;2023-05-10T01:53:10;36.28;;;13.93;;
56736;SDS011;42618;51.226;4.910;2023-05-10T01:55:49;31.30;;;11.95;;
56736;SDS011;42618;51.226;4.910;2023-05-10T01:58:28;34.83;;;11.98;;
56736;SDS011;42618;51.226;4.910;2023-05-10T02:00:58;34.25;;;13.75;;
56736;SDS011;42618;51.226;4.910;2023-05-10T02:03:27;33.13;;;13.68;;
56736;SDS011;42618;51.226;4.910;2023-05-10T02:05:56;36.22;;;15.27;;
56736;SDS011;42618;51.226;4.910;2023-05-10T02:08:25;32.17;;;12.43;;
56736;SDS011;42618;51.226;4.910;2023-05-10T02:10:56;40.60;;;14.95;;
56736;SDS011;42618;51.226;4.910;2023-05-10T02:13:25;39.67;;;15.65;;
56736;SDS011;42618;51.226;4.910;2023-05-10T02:15:53;35.35;;;14.20;;
56736;SDS011;42618;51.226;4.910;2023-05-10T02:18:22;39.95;;;15.55;;
56736;SDS011;42618;51.226;4.910;2023-05-10T02:20:50;40.40;;;15.57;;
56736;SDS011;42618;51.226;4.910;2023-05-10T02:23:20;38.17;;;13.70;;
56736;SDS011;42618;51.226;4.910;2023-05-10T02:25:47;43.28;;;15.52;;
56736;SDS011;42618;51.226;4.910;2023-05-10T02:28:16;40.63;;;15.93;;
56736;SDS011;42618;51.226;4.910;2023-05-10T02:30:44;42.38;;;15.35;;
56736;SDS011;42618;51.226;4.910;2023-05-10T02:33:13;40.50;;;13.50;;
56736;SDS011;42618;51.226;4.910;2023-05-10T02:35:40;38.70;;;14.30;;
56736;SDS011;42618;51.226;4.910;2023-05-10T02:38:08;41.85;;;14.65;;
56736;SDS011;42618;51.226;4.910;2023-05-10T02:40:36;38.28;;;15.38;;
56736;SDS011;42618;51.226;4.910;2023-05-10T02:43:04;36.45;;;13.52;;
56736;SDS011;42618;51.226;4.910;2023-05-10T02:45:35;37.78;;;15.13;;
56736;SDS011;42618;51.226;4.910;2023-05-10T02:48:05;38.75;;;14.80;;
56736;SDS011;42618;51.226;4.910;2023-05-10T02:50:32;40.13;;;14.93;;
56736;SDS011;42618;51.226;4.910;2023-05-10T02:53:00;37.15;;;13.98;;
56736;SDS011;42618;51.226;4.910;2023-05-10T02:55:31;34.28;;;12.73;;
56736;SDS011;42618;51.226;4.910;2023-05-10T02:58:02;34.22;;;13.20;;
56736;SDS011;42618;51.226;4.910;2023-05-10T03:02:57;32.22;;;12.88;;
56736;SDS011;42618;51.226;4.910;2023-05-10T03:05:24;39.10;;;14.68;;
56736;SDS011;42618;51.226;4.910;2023-05-10T03:07:51;34.20;;;13.73;;
56736;SDS011;42618;51.226;4.910;2023-05-10T03:10:19;32.97;;;13.48;;
56736;SDS011;42618;51.226;4.910;2023-05-10T03:13:29;36.47;;;14.68;;
56736;SDS011;42618;51.226;4.910;2023-05-10T03:15:59;39.47;;;15.23;;
56736;SDS011;42618;51.226;4.910;2023-05-10T03:18:33;38.95;;;14.77;;
56736;SDS011;42618;51.226;4.910;2023-05-10T03:21:08;34.00;;;14.32;;
56736;SDS011;42618;51.226;4.910;2023-05-10T03:23:46;36.58;;;14.40;;
56736;SDS011;42618;51.226;4.910;2023-05-10T03:26:17;36.78;;;14.35;;
56736;SDS011;42618;51.226;4.910;2023-05-10T03:28:51;31.65;;;14.05;;
56736;SDS011;42618;51.226;4.910;2023-05-10T03:31:19;30.27;;;13.60;;
56736;SDS011;42618;51.226;4.910;2023-05-10T03:33:47;34.45;;;14.27;;
56736;SDS011;42618;51.226;4.910;2023-05-10T03:36:20;30.70;;;14.38;;
56736;SDS011;42618;51.226;4.910;2023-05-10T03:38:47;33.07;;;14.43;;
56736;SDS011;42618;51.226;4.910;2023-05-10T03:41:14;33.75;;;14.82;;
56736;SDS011;42618;51.226;4.910;2023-05-10T03:43:41;28.88;;;12.88;;
56736;SDS011;42618;51.226;4.910;2023-05-10T03:46:08;32.10;;;12.88;;
56736;SDS011;42618;51.226;4.910;2023-05-10T03:48:35;32.80;;;13.20;;
56736;SDS011;42618;51.226;4.910;2023-05-10T03:51:01;34.20;;;14.65;;
56736;SDS011;42618;51.226;4.910;2023-05-10T03:53:28;41.75;;;15.82;;
56736;SDS011;42618;51.226;4.910;2023-05-10T03:55:55;37.75;;;15.35;;
56736;SDS011;42618;51.226;4.910;2023-05-10T03:58:23;42.30;;;15.75;;
56736;SDS011;42618;51.226;4.910;2023-05-10T04:00:50;39.92;;;16.20;;
56736;SDS011;42618;51.226;4.910;2023-05-10T04:03:18;49.20;;;17.75;;
56736;SDS011;42618;51.226;4.910;2023-05-10T04:05:45;43.97;;;16.37;;
56736;SDS011;42618;51.226;4.910;2023-05-10T04:08:11;43.35;;;17.35;;
56736;SDS011;42618;51.226;4.910;2023-05-10T04:10:38;44.53;;;17.35;;
56736;SDS011;42618;51.226;4.910;2023-05-10T04:13:06;44.40;;;16.70;;
56736;SDS011;42618;51.226;4.910;2023-05-10T04:15:32;49.40;;;18.95;;
56736;SDS011;42618;51.226;4.910;2023-05-10T04:17:59;53.42;;;20.40;;
56736;SDS011;42618;51.226;4.910;2023-05-10T04:20:26;51.90;;;20.23;;
56736;SDS011;42618;51.226;4.910;2023-05-10T04:22:53;60.00;;;22.05;;
56736;SDS011;42618;51.226;4.910;2023-05-10T04:25:20;58.50;;;21.67;;
56736;SDS011;42618;51.226;4.910;2023-05-10T04:27:46;61.83;;;21.45;;
56736;SDS011;42618;51.226;4.910;2023-05-10T04:30:13;60.15;;;21.70;;
56736;SDS011;42618;51.226;4.910;2023-05-10T04:32:40;64.78;;;24.13;;
56736;SDS011;42618;51.226;4.910;2023-05-10T04:35:07;54.92;;;21.55;;
56736;SDS011;42618;51.226;4.910;2023-05-10T04:37:36;65.35;;;21.85;;
56736;SDS011;42618;51.226;4.910;2023-05-10T04:40:03;61.65;;;21.17;;
56736;SDS011;42618;51.226;4.910;2023-05-10T04:42:30;59.53;;;22.05;;
56736;SDS011;42618;51.226;4.910;2023-05-10T04:44:57;58.63;;;21.55;;
56736;SDS011;42618;51.226;4.910;2023-05-10T04:47:23;59.65;;;21.60;;
56736;SDS011;42618;51.226;4.910;2023-05-10T04:49:50;49.67;;;20.80;;
56736;SDS011;42618;51.226;4.910;2023-05-10T04:52:17;61.67;;;21.10;;
56736;SDS011;42618;51.226;4.910;2023-05-10T04:54:44;54.20;;;21.33;;
56736;SDS011;42618;51.226;4.910;2023-05-10T04:57:10;52.10;;;19.15;;
56736;SDS011;42618;51.226;4.910;2023-05-10T04:59:37;52.78;;;19.45;;
56736;SDS011;42618;51.226;4.910;2023-05-10T05:02:04;54.60;;;20.80;;
56736;SDS011;42618;51.226;4.910;2023-05-10T05:04:31;53.10;;;18.83;;
56736;SDS011;42618;51.226;4.910;2023-05-10T05:06:58;55.17;;;20.20;;
56736;SDS011;42618;51.226;4.910;2023-05-10T05:09:25;55.47;;;19.92;;
56736;SDS011;42618;51.226;4.910;2023-05-10T05:11:52;49.53;;;18.83;;
56736;SDS011;42618;51.226;4.910;2023-05-10T05:14:18;49.95;;;18.50;;
56736;SDS011;42618;51.226;4.910;2023-05-10T05:16:47;52.90;;;17.38;;
56736;SDS011;42618;51.226;4.910;2023-05-10T05:19:14;47.03;;;18.10;;
56736;SDS011;42618;51.226;4.910;2023-05-10T05:21:40;43.05;;;15.68;;
56736;SDS011;42618;51.226;4.910;2023-05-10T05:24:07;46.42;;;16.85;;
56736;SDS011;42618;51.226;4.910;2023-05-10T05:26:34;46.80;;;17.55;;
56736;SDS011;42618;51.226;4.910;2023-05-10T05:29:01;45.30;;;16.55;;
56736;SDS011;42618;51.226;4.910;2023-05-10T05:31:28;50.75;;;17.13;;
56736;SDS011;42618;51.226;4.910;2023-05-10T05:33:55;53.50;;;18.67;;
56736;SDS011;42618;51.226;4.910;2023-05-10T05:36:22;46.50;;;16.85;;
56736;SDS011;42618;51.226;4.910;2023-05-10T05:38:49;37.65;;;15.45;;
56736;SDS011;42618;51.226;4.910;2023-05-10T05:41:15;42.90;;;16.13;;
56736;SDS011;42618;51.226;4.910;2023-05-10T05:43:42;52.33;;;17.17;;
56736;SDS011;42618;51.226;4.910;2023-05-10T05:46:09;49.25;;;16.08;;
56736;SDS011;42618;51.226;4.910;2023-05-10T05:48:36;50.53;;;17.20;;
56736;SDS011;42618;51.226;4.910;2023-05-10T05:51:02;46.88;;;16.80;;
56736;SDS011;42618;51.226;4.910;2023-05-10T05:53:32;41.17;;;15.93;;
56736;SDS011;42618;51.226;4.910;2023-05-10T05:55:59;43.03;;;15.88;;
56736;SDS011;42618;51.226;4.910;2023-05-10T05:58:25;44.05;;;16.15;;
56736;SDS011;42618;51.226;4.910;2023-05-10T06:00:53;39.72;;;15.07;;
56736;SDS011;42618;51.226;4.910;2023-05-10T06:03:20;38.83;;;16.48;;
56736;SDS011;42618;51.226;4.910;2023-05-10T06:05:47;46.88;;;16.77;;
56736;SDS011;42618;51.226;4.910;2023-05-10T06:08:14;41.60;;;14.27;;
56736;SDS011;42618;51.226;4.910;2023-05-10T06:10:41;34.80;;;15.05;;
56736;SDS011;42618;51.226;4.910;2023-05-10T06:13:07;42.60;;;15.95;;
56736;SDS011;42618;51.226;4.910;2023-05-10T06:15:34;37.05;;;15.27;;
56736;SDS011;42618;51.226;4.910;2023-05-10T06:18:01;36.47;;;15.25;;
56736;SDS011;42618;51.226;4.910;2023-05-10T06:20:28;36.63;;;14.35;;
56736;SDS011;42618;51.226;4.910;2023-05-10T06:22:55;33.10;;;13.57;;
56736;SDS011;42618;51.226;4.910;2023-05-10T06:25:21;30.58;;;13.68;;
56736;SDS011;42618;51.226;4.910;2023-05-10T06:27:48;27.15;;;12.25;;
56736;SDS011;42618;51.226;4.910;2023-05-10T06:30:19;27.65;;;13.35;;
56736;SDS011;42618;51.226;4.910;2023-05-10T06:32:46;27.75;;;13.50;;
56736;SDS011;42618;51.226;4.910;2023-05-10T06:35:13;28.02;;;13.48;;
56736;SDS011;42618;51.226;4.910;2023-05-10T06:37:40;30.73;;;13.80;;
56736;SDS011;42618;51.226;4.910;2023-05-10T06:40:07;29.65;;;13.05;;
56736;SDS011;42618;51.226;4.910;2023-05-10T06:42:34;18.83;;;9.40;;
56736;SDS011;42618;51.226;4.910;2023-05-10T06:45:01;20.55;;;9.02;;
56736;SDS011;42618;51.226;4.910;2023-05-10T06:47:28;20.13;;;10.80;;
56736;SDS011;42618;51.226;4.910;2023-05-10T06:49:55;22.20;;;10.45;;
56736;SDS011;42618;51.226;4.910;2023-05-10T06:52:22;14.27;;;8.30;;
56736;SDS011;42618;51.226;4.910;2023-05-10T06:54:49;13.48;;;8.80;;
56736;SDS011;42618;51.226;4.910;2023-05-10T06:57:16;13.55;;;7.55;;
56736;SDS011;42618;51.226;4.910;2023-05-10T06:59:57;13.52;;;7.95;;
56736;SDS011;42618;51.226;4.910;2023-05-10T07:02:24;12.63;;;6.57;;
56736;SDS011;42618;51.226;4.910;2023-05-10T07:04:51;13.05;;;6.85;;
56736;SDS011;42618;51.226;4.910;2023-05-10T07:07:18;11.60;;;6.70;;
56736;SDS011;42618;51.226;4.910;2023-05-10T07:09:45;10.27;;;5.43;;
56736;SDS011;42618;51.226;4.910;2023-05-10T07:12:12;9.02;;;5.28;;
56736;SDS011;42618;51.226;4.910;2023-05-10T07:14:41;13.60;;;6.72;;
56736;SDS011;42618;51.226;4.910;2023-05-10T07:17:08;9.65;;;5.78;;
56736;SDS011;42618;51.226;4.910;2023-05-10T07:19:35;12.57;;;6.33;;
56736;SDS011;42618;51.226;4.910;2023-05-10T07:22:02;10.13;;;6.10;;
56736;SDS011;42618;51.226;4.910;2023-05-10T07:24:29;10.47;;;6.43;;
56736;SDS011;42618;51.226;4.910;2023-05-10T07:26:57;11.88;;;6.50;;
56736;SDS011;42618;51.226;4.910;2023-05-10T07:29:24;13.43;;;7.03;;
56736;SDS011;42618;51.226;4.910;2023-05-10T07:31:51;17.23;;;7.30;;
56736;SDS011;42618;51.226;4.910;2023-05-10T07:34:18;18.48;;;7.63;;
56736;SDS011;42618;51.226;4.910;2023-05-10T07:36:45;14.13;;;6.93;;
56736;SDS011;42618;51.226;4.910;2023-05-10T07:39:12;15.77;;;7.03;;
56736;SDS011;42618;51.226;4.910;2023-05-10T07:41:49;12.75;;;6.72;;
56736;SDS011;42618;51.226;4.910;2023-05-10T07:44:16;12.20;;;6.18;;
56736;SDS011;42618;51.226;4.910;2023-05-10T07:46:45;16.55;;;6.97;;
56736;SDS011;42618;51.226;4.910;2023-05-10T07:49:12;15.55;;;8.10;;
56736;SDS011;42618;51.226;4.910;2023-05-10T07:51:39;14.13;;;8.10;;
56736;SDS011;42618;51.226;4.910;2023-05-10T07:54:06;13.07;;;7.90;;
56736;SDS011;42618;51.226;4.910;2023-05-10T07:56:33;15.20;;;8.95;;
56736;SDS011;42618;51.226;4.910;2023-05-10T07:59:01;17.08;;;9.88;;
56736;SDS011;42618;51.226;4.910;2023-05-10T08:01:30;21.65;;;10.70;;
56736;SDS011;42618;51.226;4.910;2023-05-10T08:03:58;16.55;;;7.97;;
56736;SDS011;42618;51.226;4.910;2023-05-10T08:06:25;14.95;;;9.13;;
56736;SDS011;42618;51.226;4.910;2023-05-10T08:08:56;20.55;;;11.07;;
56736;SDS011;42618;51.226;4.910;2023-05-10T08:11:23;19.58;;;11.27;;
56736;SDS011;42618;51.226;4.910;2023-05-10T08:13:51;19.27;;;11.18;;
56736;SDS011;42618;51.226;4.910;2023-05-10T08:16:18;19.92;;;10.80;;
56736;SDS011;42618;51.226;4.910;2023-05-10T08:18:45;26.55;;;12.75;;
56736;SDS011;42618;51.226;4.910;2023-05-10T08:21:13;24.08;;;12.18;;
56736;SDS011;42618;51.226;4.910;2023-05-10T08:23:41;22.42;;;10.43;;
56736;SDS011;42618;51.226;4.910;2023-05-10T08:26:10;25.15;;;13.48;;
56736;SDS011;42618;51.226;4.910;2023-05-10T08:28:37;24.23;;;12.63;;
56736;SDS011;42618;51.226;4.910;2023-05-10T08:31:04;26.42;;;14.57;;
56736;SDS011;42618;51.226;4.910;2023-05-10T08:33:31;32.35;;;16.55;;
56736;SDS011;42618;51.226;4.910;2023-05-10T08:35:58;27.92;;;11.88;;
56736;SDS011;42618;51.226;4.910;2023-05-10T08:38:25;30.83;;;16.13;;
56736;SDS011;42618;51.226;4.910;2023-05-10T08:40:52;25.67;;;13.73;;
56736;SDS011;42618;51.226;4.910;2023-05-10T08:43:28;31.10;;;16.15;;
56736;SDS011;42618;51.226;4.910;2023-05-10T08:45:56;28.75;;;15.70;;
56736;SDS011;42618;51.226;4.910;2023-05-10T08:48:27;29.60;;;15.60;;
56736;SDS011;42618;51.226;4.910;2023-05-10T08:50:56;32.38;;;16.63;;
56736;SDS011;42618;51.226;4.910;2023-05-10T08:53:25;19.75;;;10.02;;
56736;SDS011;42618;51.226;4.910;2023-05-10T08:58:20;28.65;;;15.35;;
56736;SDS011;42618;51.226;4.910;2023-05-10T09:00:48;31.92;;;16.60;;
56736;SDS011;42618;51.226;4.910;2023-05-10T09:03:17;30.95;;;15.10;;
56736;SDS011;42618;51.226;4.910;2023-05-10T09:05:44;25.83;;;12.70;;
56736;SDS011;42618;51.226;4.910;2023-05-10T09:08:11;22.05;;;13.05;;
56736;SDS011;42618;51.226;4.910;2023-05-10T09:10:39;25.15;;;14.10;;
56736;SDS011;42618;51.226;4.910;2023-05-10T09:13:09;19.98;;;10.40;;
56736;SDS011;42618;51.226;4.910;2023-05-10T09:15:37;27.75;;;14.32;;
56736;SDS011;42618;51.226;4.910;2023-05-10T09:20:31;19.13;;;10.77;;
56736;SDS011;42618;51.226;4.910;2023-05-10T09:22:58;20.08;;;10.45;;
56736;SDS011;42618;51.226;4.910;2023-05-10T09:25:25;21.40;;;9.65;;
56736;SDS011;42618;51.226;4.910;2023-05-10T09:27:52;15.18;;;9.25;;
56736;SDS011;42618;51.226;4.910;2023-05-10T09:30:25;19.70;;;10.53;;
56736;SDS011;42618;51.226;4.910;2023-05-10T09:32:54;21.55;;;12.20;;
56736;SDS011;42618;51.226;4.910;2023-05-10T09:37:53;15.45;;;10.52;;
56736;SDS011;42618;51.226;4.910;2023-05-10T09:40:22;21.73;;;12.63;;
56736;SDS011;42618;51.226;4.910;2023-05-10T09:43:00;24.85;;;13.93;;
56736;SDS011;42618;51.226;4.910;2023-05-10T09:45:27;22.70;;;13.57;;
56736;SDS011;42618;51.226;4.910;2023-05-10T09:47:56;23.33;;;14.00;;
56736;SDS011;42618;51.226;4.910;2023-05-10T09:50:23;19.40;;;12.82;;
56736;SDS011;42618;51.226;4.910;2023-05-10T09:55:22;18.23;;;10.98;;
56736;SDS011;42618;51.226;4.910;2023-05-10T09:58:01;22.23;;;12.20;;
56736;SDS011;42618;51.226;4.910;2023-05-10T10:00:33;24.20;;;14.32;;
56736;SDS011;42618;51.226;4.910;2023-05-10T10:03:02;22.63;;;12.40;;
56736;SDS011;42618;51.226;4.910;2023-05-10T10:05:30;20.05;;;12.02;;
56736;SDS011;42618;51.226;4.910;2023-05-10T10:07:58;23.27;;;11.80;;
56736;SDS011;42618;51.226;4.910;2023-05-10T10:10:26;21.48;;;12.52;;
56736;SDS011;42618;51.226;4.910;2023-05-10T10:12:53;20.33;;;11.30;;
56736;SDS011;42618;51.226;4.910;2023-05-10T10:15:21;22.05;;;12.23;;
56736;SDS011;42618;51.226;4.910;2023-05-10T10:20:16;18.25;;;11.05;;
56736;SDS011;42618;51.226;4.910;2023-05-10T10:22:44;19.25;;;9.57;;
56736;SDS011;42618;51.226;4.910;2023-05-10T10:25:12;19.42;;;10.00;;
56736;SDS011;42618;51.226;4.910;2023-05-10T10:35:24;21.77;;;11.10;;
56736;SDS011;42618;51.226;4.910;2023-05-10T10:37:51;21.58;;;10.43;;
56736;SDS011;42618;51.226;4.910;2023-05-10T10:42:52;24.88;;;10.50;;
56736;SDS011;42618;51.226;4.910;2023-05-10T10:47:47;19.05;;;8.77;;
56736;SDS011;42618;51.226;4.910;2023-05-10T10:50:14;20.50;;;10.10;;
56736;SDS011;42618;51.226;4.910;2023-05-10T10:52:43;14.10;;;6.32;;
56736;SDS011;42618;51.226;4.910;2023-05-10T10:55:17;16.50;;;7.93;;
56736;SDS011;42618;51.226;4.910;2023-05-10T10:57:49;15.48;;;6.85;;
56736;SDS011;42618;51.226;4.910;2023-05-10T11:00:30;17.90;;;8.35;;
56736;SDS011;42618;51.226;4.910;2023-05-10T11:03:09;14.15;;;6.90;;
56736;SDS011;42618;51.226;4.910;2023-05-10T11:05:50;17.95;;;8.77;;
56736;SDS011;42618;51.226;4.910;2023-05-10T11:08:28;16.50;;;7.00;;
56736;SDS011;42618;51.226;4.910;2023-05-10T11:13:29;15.45;;;7.18;;
56736;SDS011;42618;51.226;4.910;2023-05-10T11:16:10;15.52;;;6.80;;
56736;SDS011;42618;51.226;4.910;2023-05-10T11:18:40;12.27;;;6.57;;
56736;SDS011;42618;51.226;4.910;2023-05-10T11:21:17;12.43;;;5.78;;
56736;SDS011;42618;51.226;4.910;2023-05-10T11:26:11;14.85;;;7.43;;
56736;SDS011;42618;51.226;4.910;2023-05-10T11:28:44;16.25;;;7.72;;
56736;SDS011;42618;51.226;4.910;2023-05-10T11:31:13;14.55;;;7.32;;
56736;SDS011;42618;51.226;4.910;2023-05-10T11:33:45;10.10;;;5.00;;
56736;SDS011;42618;51.226;4.910;2023-05-10T11:36:17;13.27;;;7.43;;
56736;SDS011;42618;51.226;4.910;2023-05-10T11:38:45;17.25;;;5.95;;
56736;SDS011;42618;51.226;4.910;2023-05-10T11:43:40;12.18;;;6.45;;
56736;SDS011;42618;51.226;4.910;2023-05-10T11:46:08;15.38;;;6.57;;
56736;SDS011;42618;51.226;4.910;2023-05-10T11:48:40;13.88;;;6.18;;
56736;SDS011;42618;51.226;4.910;2023-05-10T11:51:09;8.32;;;5.22;;
56736;SDS011;42618;51.226;4.910;2023-05-10T11:53:36;11.52;;;6.95;;
56736;SDS011;42618;51.226;4.910;2023-05-10T11:56:07;13.07;;;6.65;;
56736;SDS011;42618;51.226;4.910;2023-05-10T11:58:36;12.23;;;6.25;;
56736;SDS011;42618;51.226;4.910;2023-05-10T12:01:05;12.50;;;6.22;;
56736;SDS011;42618;51.226;4.910;2023-05-10T12:03:33;17.98;;;6.93;;
56736;SDS011;42618;51.226;4.910;2023-05-10T12:06:01;11.88;;;6.45;;
56736;SDS011;42618;51.226;4.910;2023-05-10T12:08:29;10.40;;;5.80;;
56736;SDS011;42618;51.226;4.910;2023-05-10T12:11:04;10.63;;;6.55;;
56736;SDS011;42618;51.226;4.910;2023-05-10T12:13:36;11.35;;;5.90;;
56736;SDS011;42618;51.226;4.910;2023-05-10T12:16:13;10.18;;;5.22;;
56736;SDS011;42618;51.226;4.910;2023-05-10T12:18:42;9.25;;;5.53;;
56736;SDS011;42618;51.226;4.910;2023-05-10T12:21:09;11.65;;;6.47;;
56736;SDS011;42618;51.226;4.910;2023-05-10T12:23:38;8.82;;;5.57;;
56736;SDS011;42618;51.226;4.910;2023-05-10T12:28:33;13.07;;;6.37;;
56736;SDS011;42618;51.226;4.910;2023-05-10T12:31:01;11.02;;;6.32;;
56736;SDS011;42618;51.226;4.910;2023-05-10T12:33:46;9.80;;;4.55;;
56736;SDS011;42618;51.226;4.910;2023-05-10T12:36:15;8.10;;;4.80;;
56736;SDS011;42618;51.226;4.910;2023-05-10T12:38:44;9.00;;;5.63;;
56736;SDS011;42618;51.226;4.910;2023-05-10T12:41:15;13.30;;;5.88;;
56736;SDS011;42618;51.226;4.910;2023-05-10T12:43:43;8.75;;;5.30;;
56736;SDS011;42618;51.226;4.910;2023-05-10T12:46:11;8.68;;;4.38;;
56736;SDS011;42618;51.226;4.910;2023-05-10T12:48:40;8.55;;;5.22;;
56736;SDS011;42618;51.226;4.910;2023-05-10T12:51:07;9.40;;;5.43;;
56736;SDS011;42618;51.226;4.910;2023-05-10T12:53:35;9.38;;;5.25;;
56736;SDS011;42618;51.226;4.910;2023-05-10T12:56:03;10.65;;;6.00;;
56736;SDS011;42618;51.226;4.910;2023-05-10T12:58:30;9.53;;;5.53;;
56736;SDS011;42618;51.226;4.910;2023-05-10T13:01:01;10.07;;;5.68;;
56736;SDS011;42618;51.226;4.910;2023-05-10T13:03:28;10.43;;;5.35;;
56736;SDS011;42618;51.226;4.910;2023-05-10T13:05:55;11.88;;;5.30;;
56736;SDS011;42618;51.226;4.910;2023-05-10T13:08:22;8.55;;;5.13;;
56736;SDS011;42618;51.226;4.910;2023-05-10T13:10:49;9.13;;;4.93;;
56736;SDS011;42618;51.226;4.910;2023-05-10T13:13:15;5.15;;;3.60;;
56736;SDS011;42618;51.226;4.910;2023-05-10T13:15:42;10.20;;;5.10;;
56736;SDS011;42618;51.226;4.910;2023-05-10T13:18:09;11.02;;;5.30;;
56736;SDS011;42618;51.226;4.910;2023-05-10T13:20:36;12.03;;;5.40;;
56736;SDS011;42618;51.226;4.910;2023-05-10T13:23:03;7.93;;;4.87;;
56736;SDS011;42618;51.226;4.910;2023-05-10T13:25:29;7.50;;;4.15;;
56736;SDS011;42618;51.226;4.910;2023-05-10T13:27:56;8.98;;;4.20;;
56736;SDS011;42618;51.226;4.910;2023-05-10T13:30:23;8.38;;;5.45;;
56736;SDS011;42618;51.226;4.910;2023-05-10T13:32:50;9.55;;;4.95;;
56736;SDS011;42618;51.226;4.910;2023-05-10T13:35:17;7.82;;;4.30;;
56736;SDS011;42618;51.226;4.910;2023-05-10T13:37:44;8.70;;;5.13;;
56736;SDS011;42618;51.226;4.910;2023-05-10T13:40:10;9.18;;;3.80;;
56736;SDS011;42618;51.226;4.910;2023-05-10T13:42:37;9.00;;;5.43;;
56736;SDS011;42618;51.226;4.910;2023-05-10T13:45:04;8.07;;;4.75;;
56736;SDS011;42618;51.226;4.910;2023-05-10T13:47:32;7.13;;;4.03;;
56736;SDS011;42618;51.226;4.910;2023-05-10T13:49:59;8.30;;;4.30;;
56736;SDS011;42618;51.226;4.910;2023-05-10T13:52:26;9.65;;;5.93;;
56736;SDS011;42618;51.226;4.910;2023-05-10T13:54:52;9.07;;;5.17;;
56736;SDS011;42618;51.226;4.910;2023-05-10T13:57:21;8.30;;;4.72;;
56736;SDS011;42618;51.226;4.910;2023-05-10T13:59:50;6.72;;;4.22;;
56736;SDS011;42618;51.226;4.910;2023-05-10T14:02:17;8.63;;;4.70;;
56736;SDS011;42618;51.226;4.910;2023-05-10T14:04:43;10.10;;;5.15;;
56736;SDS011;42618;51.226;4.910;2023-05-10T14:07:10;7.68;;;5.18;;
56736;SDS011;42618;51.226;4.910;2023-05-10T14:09:37;10.07;;;5.35;;
56736;SDS011;42618;51.226;4.910;2023-05-10T14:12:03;12.07;;;4.93;;
56736;SDS011;42618;51.226;4.910;2023-05-10T14:14:30;12.57;;;5.40;;
56736;SDS011;42618;51.226;4.910;2023-05-10T14:16:57;9.07;;;5.80;;
56736;SDS011;42618;51.226;4.910;2023-05-10T14:19:25;8.18;;;4.60;;
56736;SDS011;42618;51.226;4.910;2023-05-10T14:24:20;8.98;;;5.07;;
56736;SDS011;42618;51.226;4.910;2023-05-10T14:26:46;13.40;;;5.88;;
56736;SDS011;42618;51.226;4.910;2023-05-10T14:29:13;10.32;;;5.20;;
56736;SDS011;42618;51.226;4.910;2023-05-10T14:31:40;10.55;;;5.43;;
56736;SDS011;42618;51.226;4.910;2023-05-10T14:34:07;12.57;;;5.07;;
56736;SDS011;42618;51.226;4.910;2023-05-10T14:36:33;8.32;;;5.00;;
56736;SDS011;42618;51.226;4.910;2023-05-10T14:39:00;11.32;;;5.22;;
56736;SDS011;42618;51.226;4.910;2023-05-10T14:41:27;9.85;;;5.72;;
56736;SDS011;42618;51.226;4.910;2023-05-10T14:43:53;8.90;;;5.60;;
56736;SDS011;42618;51.226;4.910;2023-05-10T14:46:20;10.48;;;5.20;;
56736;SDS011;42618;51.226;4.910;2023-05-10T14:48:47;9.75;;;4.82;;
56736;SDS011;42618;51.226;4.910;2023-05-10T14:51:13;9.85;;;6.47;;
56736;SDS011;42618;51.226;4.910;2023-05-10T14:53:40;10.10;;;5.43;;
56736;SDS011;42618;51.226;4.910;2023-05-10T14:56:07;6.95;;;4.63;;
56736;SDS011;42618;51.226;4.910;2023-05-10T14:58:34;6.55;;;3.75;;
56736;SDS011;42618;51.226;4.910;2023-05-10T15:01:00;10.43;;;5.20;;
56736;SDS011;42618;51.226;4.910;2023-05-10T15:03:28;10.15;;;4.40;;
56736;SDS011;42618;51.226;4.910;2023-05-10T15:05:55;9.40;;;4.53;;
56736;SDS011;42618;51.226;4.910;2023-05-10T15:08:24;10.25;;;5.05;;
56736;SDS011;42618;51.226;4.910;2023-05-10T15:10:51;10.83;;;5.17;;
56736;SDS011;42618;51.226;4.910;2023-05-10T15:13:18;10.70;;;5.63;;
56736;SDS011;42618;51.226;4.910;2023-05-10T15:15:44;12.57;;;6.45;;
56736;SDS011;42618;51.226;4.910;2023-05-10T15:18:11;11.82;;;5.93;;
56736;SDS011;42618;51.226;4.910;2023-05-10T15:20:38;9.15;;;5.95;;
56736;SDS011;42618;51.226;4.910;2023-05-10T15:23:04;9.55;;;5.38;;
56736;SDS011;42618;51.226;4.910;2023-05-10T15:25:31;11.25;;;6.15;;
56736;SDS011;42618;51.226;4.910;2023-05-10T15:28:01;13.40;;;7.07;;
56736;SDS011;42618;51.226;4.910;2023-05-10T15:32:55;13.05;;;5.68;;